TimePST,TemperatureF,Dew PointF,Humidity,Sea Level PressureIn,VisibilityMPH,Wind Direction,Wind SpeedMPH,Gust SpeedMPH,PrecipitationIn,Events,Conditions,WindDirDegrees,DateUTC
12:12 AM,30.0,30.0,100,29.73,0.2,North,-9999.0,-,N/A,Fog,Light Freezing Fog,0,2014-02-07 08:12:00
12:51 AM,30.2,30.2,100,29.74,0.2,North,-9999.0,-,0.00,Fog-Snow,Light Snow,0,2014-02-07 08:51:00
12:56 AM,30.0,30.0,100,29.81,0.2,North,-9999.0,-,0.00,Fog-Snow,Light Snow,0,2014-02-07 08:56:00
1:29 AM,30.0,30.0,100,29.75,0.2,North,-9999.0,-,0.01,Fog-Snow,Light Snow,0,2014-02-07 09:29:00
1:46 AM,28.9,28.9,100,29.75,0.5,North,-9999.0,-,0.01,Fog,Light Freezing Fog,0,2014-02-07 09:46:00
1:56 AM,28.9,28.9,100,29.81,1.0,North,-9999.0,-,0.01,,Overcast,0,2014-02-07 09:56:00
2:08 AM,28.9,28.9,100,29.75,0.5,North,-9999.0,-,N/A,Fog,Light Freezing Fog,0,2014-02-07 10:08:00
2:15 AM,30.0,28.9,96,29.75,0.2,North,-9999.0,-,N/A,Fog,Light Freezing Fog,0,2014-02-07 10:15:00
2:56 AM,28.9,28.9,100,29.81,0.2,North,-9999.0,-,0.00,Fog,Light Freezing Fog,0,2014-02-07 10:56:00
3:56 AM,30.0,30.0,100,29.80,0.2,North,-9999.0,-,0.00,Fog-Snow,Light Snow,0,2014-02-07 11:56:00
4:56 AM,30.0,30.0,100,29.80,0.2,North,-9999.0,-,0.00,Fog,Light Freezing Fog,0,2014-02-07 12:56:00
5:56 AM,30.0,30.0,100,29.80,0.2,North,-9999.0,-,0.00,Fog,Light Freezing Fog,0,2014-02-07 13:56:00
6:23 AM,30.0,30.0,100,29.74,0.2,North,-9999.0,-,N/A,Fog,Light Freezing Fog,0,2014-02-07 14:23:00
6:33 AM,30.0,30.0,100,29.74,0.2,North,-9999.0,-,N/A,Fog,Light Freezing Fog,0,2014-02-07 14:33:00
6:56 AM,30.0,30.0,100,29.80,0.2,North,-9999.0,-,0.01,Fog-Snow,Light Snow,0,2014-02-07 14:56:00
7:28 AM,30.0,30.0,100,29.75,0.2,North,-9999.0,-,0.02,Fog-Snow,Light Snow,0,2014-02-07 15:28:00
7:51 AM,30.2,30.2,100,29.75,0.2,North,-9999.0,-,0.03,Fog-Snow,Light Snow,0,2014-02-07 15:51:00
7:56 AM,30.0,30.0,100,29.82,0.2,North,-9999.0,-,0.03,Fog-Snow,Light Snow,0,2014-02-07 15:56:00
8:56 AM,30.0,30.0,100,29.81,0.2,North,-9999.0,-,0.05,Fog-Snow,Snow,0,2014-02-07 16:56:00
9:56 AM,30.9,30.9,100,29.81,0.2,North,-9999.0,-,0.02,Fog-Snow,Light Snow,0,2014-02-07 17:56:00
10:56 AM,32.0,30.9,96,29.80,0.2,North,-9999.0,-,0.02,Fog-Snow,Snow,0,2014-02-07 18:56:00
11:56 AM,32.0,30.0,92,29.74,0.2,North,-9999.0,-,0.09,Fog-Snow,Snow,0,2014-02-07 19:56:00
12:56 PM,32.0,30.9,96,29.70,0.2,North,-9999.0,-,0.09,Fog-Snow,Snow,0,2014-02-07 20:56:00
1:15 PM,32.0,30.9,96,29.63,0.2,North,-9999.0,-,0.01,Fog-Snow,Light Snow,0,2014-02-07 21:15:00
1:56 PM,32.0,30.9,96,29.67,0.2,North,-9999.0,-,0.11,Fog-Snow,Snow,0,2014-02-07 21:56:00
2:56 PM,33.1,30.0,89,29.62,0.2,North,-9999.0,-,0.08,Fog-Snow,Light Snow,0,2014-02-07 22:56:00
3:28 PM,34.0,32.0,92,29.54,0.2,North,-9999.0,-,0.01,Fog-Rain,Light Freezing Rain,0,2014-02-07 23:28:00
3:34 PM,34.0,32.0,92,29.53,0.5,North,-9999.0,-,0.01,Fog-Rain,Light Freezing Rain,0,2014-02-07 23:34:00
3:44 PM,33.1,32.0,96,29.53,0.2,North,-9999.0,-,0.02,Fog-Rain,Light Rain,0,2014-02-07 23:44:00
3:56 PM,32.0,32.0,100,29.60,0.2,North,-9999.0,-,0.02,Fog,Fog,0,2014-02-07 23:56:00
4:52 PM,33.8,33.8,100,29.51,0.2,North,-9999.0,-,0.07,Fog-Rain,Light Rain,0,2014-02-08 00:52:00
4:56 PM,34.0,34.0,100,29.57,0.2,North,-9999.0,-,0.07,Fog-Rain,Light Rain,0,2014-02-08 00:56:00
5:56 PM,37.0,37.0,100,29.55,0.2,North,-9999.0,-,0.06,Fog-Snow,Light Snow,0,2014-02-08 01:56:00
6:56 PM,37.0,37.0,100,29.59,0.2,North,-9999.0,-,0.03,Fog,Fog,0,2014-02-08 02:56:00
7:56 PM,39.0,39.0,100,29.60,0.2,North,-9999.0,-,0.02,Fog-Rain,Light Rain,0,2014-02-08 03:56:00
8:56 PM,39.9,39.9,100,29.67,0.2,North,-9999.0,-,0.03,Fog-Rain,Light Rain,0,2014-02-08 04:56:00
9:23 PM,39.9,39.9,100,29.66,0.2,North,-9999.0,-,0.05,Fog-Rain,Light Rain,0,2014-02-08 05:23:00
9:56 PM,39.9,39.9,100,29.73,0.2,North,-9999.0,-,0.07,Fog-Rain,Light Rain,0,2014-02-08 05:56:00
10:53 PM,37.4,37.4,100,29.72,0.5,North,-9999.0,-,0.00,Fog,Fog,0,2014-02-08 06:53:00
10:56 PM,37.9,37.9,100,29.77,0.5,North,-9999.0,-,0.00,Fog,Fog,0,2014-02-08 06:56:00
11:04 PM,37.9,37.9,100,29.73,0.2,North,-9999.0,-,N/A,Fog,Fog,0,2014-02-08 07:04:00
11:23 PM,37.9,37.9,100,29.74,0.5,North,-9999.0,-,N/A,Fog,Fog,0,2014-02-08 07:23:00
11:30 PM,37.9,37.9,100,29.74,0.2,North,-9999.0,-,N/A,Fog,Fog,0,2014-02-08 07:30:00
11:56 PM,37.9,37.9,100,29.79,0.2,North,-9999.0,-,N/A,Fog,Fog,0,2014-02-08 07:56:00